createdAt,value
2022-11-27T00:01:37.746Z,5.07
2022-11-27T00:04:06.603Z,5.43
2022-11-27T00:06:38.928Z,5.53
2022-11-27T00:09:09.784Z,5.50
2022-11-27T00:11:39.411Z,5.25
2022-11-27T00:14:09.885Z,6.55
2022-11-27T00:16:37.756Z,6.35
2022-11-27T00:19:06.291Z,5.63
2022-11-27T00:21:38.381Z,5.15
2022-11-27T00:24:08.837Z,5.25
2022-11-27T00:26:38.320Z,5.97
2022-11-27T00:29:06.490Z,4.65
2022-11-27T00:31:38.365Z,4.88
2022-11-27T00:34:08.627Z,5.93
2022-11-27T00:36:37.557Z,4.93
2022-11-27T00:39:06.148Z,4.55
2022-11-27T00:41:34.127Z,4.00
2022-11-27T00:44:02.563Z,5.15
2022-11-27T00:46:32.700Z,4.43
2022-11-27T00:49:04.131Z,5.50
2022-11-27T00:51:32.398Z,4.35
2022-11-27T00:54:00.981Z,4.30
2022-11-27T00:56:30.438Z,3.85
2022-11-27T00:58:58.818Z,4.45
2022-11-27T01:01:29.801Z,4.45
2022-11-27T01:03:58.678Z,3.78
2022-11-27T01:06:29.887Z,4.47
2022-11-27T01:09:00.317Z,5.13
2022-11-27T01:11:31.009Z,4.43
2022-11-27T01:14:00.637Z,4.10
2022-11-27T01:16:31.132Z,4.00
2022-11-27T01:19:01.198Z,3.92
2022-11-27T01:21:33.440Z,3.92
2022-11-27T01:24:02.069Z,3.05
2022-11-27T01:26:30.393Z,3.88
2022-11-27T01:28:59.757Z,4.22
2022-11-27T01:31:31.450Z,3.13
2022-11-27T01:34:02.120Z,3.80
2022-11-27T01:36:33.126Z,3.90
2022-11-27T01:39:01.810Z,3.88
2022-11-27T01:41:36.174Z,3.90
2022-11-27T01:44:25.145Z,3.35
2022-11-27T01:46:56.857Z,3.67
2022-11-27T01:49:31.827Z,3.78
2022-11-27T01:52:04.649Z,3.88
2022-11-27T01:54:36.370Z,3.72
2022-11-27T01:57:09.796Z,3.70
2022-11-27T01:59:37.858Z,3.30
2022-11-27T02:02:06.355Z,4.03
2022-11-27T02:04:34.798Z,3.42
2022-11-27T02:07:04.247Z,3.53
2022-11-27T02:09:33.320Z,3.72
2022-11-27T02:12:17.155Z,3.85
2022-11-27T02:14:51.385Z,3.60
2022-11-27T02:17:23.623Z,3.80
2022-11-27T02:20:12.612Z,3.22
2022-11-27T02:23:06.995Z,4.13
2022-11-27T02:25:53.314Z,3.75
2022-11-27T02:28:39.788Z,3.35
2022-11-27T02:31:16.151Z,2.95
2022-11-27T02:33:51.499Z,2.42
2022-11-27T02:36:24.561Z,3.40
2022-11-27T02:38:59.059Z,2.85
2022-11-27T02:41:31.053Z,3.07
2022-11-27T02:44:01.495Z,3.20
2022-11-27T02:46:31.822Z,3.03
2022-11-27T02:49:04.806Z,3.33
2022-11-27T02:51:40.036Z,3.03
2022-11-27T02:54:12.327Z,3.72
2022-11-27T02:56:43.958Z,3.22
2022-11-27T02:59:15.156Z,3.28
2022-11-27T03:01:47.717Z,2.95
2022-11-27T03:04:21.801Z,3.22
2022-11-27T03:06:55.695Z,3.08
2022-11-27T03:09:27.257Z,3.17
2022-11-27T03:11:56.262Z,3.90
2022-11-27T03:14:24.963Z,3.55
2022-11-27T03:17:03.815Z,4.07
2022-11-27T03:19:40.365Z,3.78
2022-11-27T03:22:08.983Z,3.20
2022-11-27T03:24:37.612Z,4.32
2022-11-27T03:27:07.142Z,3.72
2022-11-27T03:29:38.282Z,3.70
2022-11-27T03:32:08.793Z,3.75
2022-11-27T03:34:37.820Z,4.10
2022-11-27T03:37:06.457Z,4.15
2022-11-27T03:39:35.664Z,4.38
2022-11-27T03:42:15.684Z,4.07
2022-11-27T03:44:48.105Z,4.15
2022-11-27T03:47:34.317Z,3.95
2022-11-27T03:50:19.447Z,4.70
2022-11-27T03:52:57.522Z,3.92
2022-11-27T03:55:33.194Z,4.55
2022-11-27T03:58:04.939Z,4.05
2022-11-27T04:00:37.382Z,5.25
2022-11-27T04:03:10.028Z,4.22
2022-11-27T04:05:38.311Z,4.78
2022-11-27T04:08:07.305Z,4.18
2022-11-27T04:10:37.195Z,4.50
2022-11-27T04:13:05.904Z,4.05
2022-11-27T04:15:33.732Z,4.10
2022-11-27T04:18:02.033Z,3.95
2022-11-27T04:20:31.418Z,4.53
2022-11-27T04:22:59.765Z,3.97
2022-11-27T04:25:27.975Z,4.47
2022-11-27T04:27:56.911Z,4.22
2022-11-27T04:30:24.760Z,3.97
2022-11-27T04:32:52.592Z,4.38
2022-11-27T04:35:20.842Z,4.45
2022-11-27T04:37:50.163Z,4.93
2022-11-27T04:40:18.811Z,4.63
2022-11-27T04:42:46.727Z,4.95
2022-11-27T04:45:17.883Z,4.85
2022-11-27T04:47:46.156Z,4.88
2022-11-27T04:50:14.322Z,5.07
2022-11-27T04:52:42.601Z,5.22
2022-11-27T04:55:12.171Z,4.32
2022-11-27T04:57:40.671Z,5.18
2022-11-27T05:00:09.982Z,5.00
2022-11-27T05:02:37.870Z,5.22
2022-11-27T05:05:06.795Z,4.63
2022-11-27T05:07:34.720Z,6.15
2022-11-27T05:10:03.252Z,5.45
2022-11-27T05:12:32.715Z,5.10
2022-11-27T05:15:04.244Z,6.03
2022-11-27T05:17:33.148Z,5.07
2022-11-27T05:20:01.019Z,4.95
2022-11-27T05:22:29.649Z,5.95
2022-11-27T05:24:57.498Z,5.55
2022-11-27T05:27:25.901Z,5.25
2022-11-27T05:29:55.185Z,4.68
2022-11-27T05:32:23.422Z,5.05
2022-11-27T05:34:51.313Z,5.47
2022-11-27T05:37:20.221Z,4.55
2022-11-27T05:39:50.311Z,4.97
2022-11-27T05:42:18.592Z,5.00
2022-11-27T05:44:46.683Z,5.05
2022-11-27T05:47:16.545Z,5.78
2022-11-27T05:49:44.463Z,4.90
2022-11-27T05:52:12.294Z,4.68
2022-11-27T05:54:43.430Z,5.13
2022-11-27T05:57:11.579Z,4.93
2022-11-27T05:59:39.930Z,5.15
2022-11-27T06:02:07.907Z,5.50
2022-11-27T06:04:37.884Z,5.47
2022-11-27T06:07:05.842Z,4.22
2022-11-27T06:09:35.588Z,4.85
2022-11-27T06:12:03.839Z,5.50
2022-11-27T06:14:32.380Z,4.95
2022-11-27T06:17:00.812Z,4.20
2022-11-27T06:19:29.016Z,5.47
2022-11-27T06:21:58.677Z,5.07
2022-11-27T06:24:26.822Z,4.88
2022-11-27T06:26:54.642Z,4.60
2022-11-27T06:29:22.877Z,4.93
2022-11-27T06:31:51.395Z,5.25
2022-11-27T06:34:19.401Z,5.88
2022-11-27T06:36:47.961Z,5.38
2022-11-27T06:39:17.339Z,5.80
2022-11-27T06:41:45.657Z,5.60
2022-11-27T06:44:13.557Z,5.10
2022-11-27T06:46:42.017Z,4.55
2022-11-27T06:49:10.870Z,5.25
2022-11-27T06:51:39.288Z,4.50
2022-11-27T06:54:07.329Z,4.53
2022-11-27T06:56:37.728Z,5.00
2022-11-27T06:59:05.558Z,5.18
2022-11-27T07:01:34.978Z,4.93
2022-11-27T07:04:03.002Z,4.40
2022-11-27T07:06:30.974Z,5.20
2022-11-27T07:08:59.442Z,5.18
2022-11-27T07:11:29.869Z,5.15
2022-11-27T07:14:01.449Z,4.35
2022-11-27T07:16:31.623Z,4.90
2022-11-27T07:19:02.582Z,5.45
2022-11-27T07:21:32.730Z,4.90
2022-11-27T07:24:01.747Z,4.72
2022-11-27T07:26:31.429Z,5.28
2022-11-27T07:29:01.498Z,4.75
2022-11-27T07:31:30.976Z,5.13
2022-11-27T07:34:00.386Z,4.25
2022-11-27T07:36:31.458Z,4.80
2022-11-27T07:38:59.440Z,4.40
2022-11-27T07:41:33.392Z,4.13
2022-11-27T07:44:04.373Z,4.28
2022-11-27T07:46:32.204Z,4.25
2022-11-27T07:49:01.852Z,4.72
2022-11-27T07:51:30.025Z,4.75
2022-11-27T07:53:58.576Z,5.55
2022-11-27T07:56:27.826Z,4.88
2022-11-27T07:58:55.557Z,4.85
2022-11-27T08:01:26.062Z,4.47
2022-11-27T08:03:54.577Z,5.38
2022-11-27T08:06:24.252Z,4.78
2022-11-27T08:08:53.117Z,5.68
2022-11-27T08:11:23.646Z,4.82
2022-11-27T08:13:52.118Z,4.95
2022-11-27T08:16:22.397Z,5.47
2022-11-27T08:18:53.349Z,4.75
2022-11-27T08:21:21.717Z,5.03
2022-11-27T08:23:49.538Z,5.47
2022-11-27T08:26:17.779Z,4.85
2022-11-27T08:28:46.237Z,5.30
2022-11-27T08:31:16.122Z,5.45
2022-11-27T08:33:44.088Z,5.07
2022-11-27T08:36:18.094Z,5.63
2022-11-27T08:38:46.430Z,5.20
2022-11-27T08:41:14.595Z,4.43
2022-11-27T08:43:42.396Z,5.18
2022-11-27T08:46:10.859Z,5.57
2022-11-27T08:48:39.198Z,5.30
2022-11-27T08:51:08.265Z,5.45
2022-11-27T08:53:38.809Z,5.35
2022-11-27T08:56:07.784Z,5.30
2022-11-27T08:58:36.084Z,5.45
2022-11-27T09:01:09.884Z,5.03
2022-11-27T09:03:38.352Z,5.25
2022-11-27T09:06:08.555Z,5.88
2022-11-27T09:08:37.843Z,4.88
2022-11-27T09:11:06.197Z,5.57
2022-11-27T09:13:36.787Z,5.30
2022-11-27T09:16:05.641Z,5.07
2022-11-27T09:18:33.492Z,4.90
2022-11-27T09:21:05.022Z,5.00
2022-11-27T09:23:33.928Z,5.43
2022-11-27T09:26:05.513Z,5.30
2022-11-27T09:28:34.818Z,5.28
2022-11-27T09:31:07.393Z,4.80
2022-11-27T09:33:39.298Z,5.15
2022-11-27T09:36:09.784Z,5.60
2022-11-27T09:38:38.869Z,4.90
2022-11-27T09:41:36.559Z,5.22
2022-11-27T09:44:13.389Z,5.57
2022-11-27T09:46:43.612Z,5.03
2022-11-27T09:49:19.561Z,6.05
2022-11-27T09:51:54.585Z,5.22
2022-11-27T09:54:26.249Z,5.47
2022-11-27T09:56:59.325Z,4.88
2022-11-27T09:59:35.264Z,4.90
2022-11-27T10:02:03.201Z,4.80
2022-11-27T10:04:50.948Z,5.22
2022-11-27T10:07:30.825Z,5.43
2022-11-27T10:10:17.547Z,4.82
2022-11-27T10:13:00.560Z,5.45
2022-11-27T10:15:38.819Z,6.05
2022-11-27T10:18:14.103Z,5.05
2022-11-27T10:20:47.665Z,5.13
2022-11-27T10:23:25.477Z,5.45
2022-11-27T10:25:59.172Z,5.22
2022-11-27T10:28:37.899Z,4.93
2022-11-27T10:31:13.777Z,5.53
2022-11-27T10:33:45.959Z,5.30
2022-11-27T10:36:16.879Z,5.18
2022-11-27T10:38:45.370Z,5.68
2022-11-27T10:41:48.723Z,5.90
2022-11-27T10:44:24.046Z,5.40
2022-11-27T10:46:54.580Z,6.63
2022-11-27T10:49:22.422Z,6.20
2022-11-27T10:51:50.127Z,5.22
2022-11-27T10:54:24.547Z,5.57
2022-11-27T10:57:09.521Z,5.60
2022-11-27T10:59:44.684Z,5.50
2022-11-27T11:02:28.520Z,4.68
2022-11-27T11:05:23.986Z,5.22
2022-11-27T11:07:44.659Z,4.97
2022-11-27T11:10:27.239Z,5.75
2022-11-27T11:13:16.736Z,4.88
2022-11-27T11:15:56.004Z,6.70
2022-11-27T11:18:26.370Z,6.20
2022-11-27T11:20:57.827Z,5.45
2022-11-27T11:23:32.404Z,5.82
2022-11-27T11:26:08.684Z,5.07
2022-11-27T11:28:47.637Z,5.93
2022-11-27T11:31:20.587Z,5.88
2022-11-27T11:33:52.346Z,5.68
2022-11-27T11:36:20.603Z,5.32
2022-11-27T11:38:49.472Z,6.90
2022-11-27T11:41:19.071Z,7.45
2022-11-27T11:43:58.883Z,6.30
2022-11-27T11:46:32.189Z,6.40
2022-11-27T11:49:04.158Z,5.47
2022-11-27T11:51:56.827Z,4.95
2022-11-27T11:54:40.603Z,5.63
2022-11-27T11:57:33.554Z,5.30
2022-11-27T12:00:07.816Z,4.57
2022-11-27T12:02:56.783Z,5.45
2022-11-27T12:05:30.983Z,5.47
2022-11-27T12:08:25.919Z,5.65
2022-11-27T12:11:03.594Z,7.20
2022-11-27T12:14:04.946Z,5.50
2022-11-27T12:16:43.174Z,5.93
2022-11-27T12:19:32.026Z,6.65
2022-11-27T12:22:12.487Z,5.85
2022-11-27T12:24:51.380Z,6.35
2022-11-27T12:27:32.998Z,6.90
2022-11-27T12:30:10.406Z,5.35
2022-11-27T12:33:04.232Z,6.25
2022-11-27T12:35:40.034Z,6.47
2022-11-27T12:38:29.656Z,6.75
2022-11-27T12:41:13.782Z,6.35
2022-11-27T12:43:45.487Z,6.78
2022-11-27T12:46:17.173Z,6.38
2022-11-27T12:48:51.387Z,6.32
2022-11-27T12:51:26.834Z,7.22
2022-11-27T12:54:01.859Z,6.72
2022-11-27T12:56:33.144Z,6.50
2022-11-27T12:59:11.769Z,6.35
2022-11-27T13:01:44.504Z,6.68
2022-11-27T13:04:20.595Z,6.13
2022-11-27T13:06:56.762Z,6.40
2022-11-27T13:09:34.229Z,7.13
2022-11-27T13:12:03.467Z,6.32
2022-11-27T13:14:37.371Z,6.45
2022-11-27T13:17:08.115Z,6.40
2022-11-27T13:19:41.353Z,7.40
2022-11-27T13:22:15.369Z,6.88
2022-11-27T13:24:44.182Z,6.20
2022-11-27T13:27:17.105Z,7.28
2022-11-27T13:29:50.111Z,8.18
2022-11-27T13:32:24.397Z,7.43
2022-11-27T13:34:53.768Z,7.32
2022-11-27T13:37:31.336Z,6.53
2022-11-27T13:40:07.149Z,6.75
2022-11-27T13:42:37.585Z,6.47
2022-11-27T13:45:11.266Z,7.10
2022-11-27T13:47:44.306Z,6.28
2022-11-27T13:50:15.240Z,7.95
2022-11-27T13:52:57.384Z,7.47
2022-11-27T13:55:28.939Z,6.55
2022-11-27T13:57:59.440Z,8.75
2022-11-27T14:00:37.772Z,8.07
2022-11-27T14:03:09.685Z,7.50
2022-11-27T14:05:41.569Z,7.20
2022-11-27T14:08:23.384Z,6.20
2022-11-27T14:10:59.101Z,6.05
2022-11-27T14:13:38.846Z,6.25
2022-11-27T14:16:21.403Z,5.50
2022-11-27T14:18:52.725Z,5.57
2022-11-27T14:21:27.458Z,6.15
2022-11-27T14:23:56.658Z,5.70
2022-11-27T14:26:25.926Z,5.22
2022-11-27T14:28:56.524Z,5.88
2022-11-27T14:31:30.234Z,6.40
2022-11-27T14:34:14.803Z,4.82
2022-11-27T14:36:43.909Z,6.97
2022-11-27T14:39:23.924Z,5.32
2022-11-27T14:41:58.700Z,5.03
2022-11-27T14:44:26.986Z,4.90
2022-11-27T14:46:55.770Z,4.35
2022-11-27T14:49:29.039Z,5.60
2022-11-27T14:52:01.075Z,4.57
2022-11-27T14:54:34.207Z,4.82
2022-11-27T14:57:02.397Z,4.82
2022-11-27T14:59:30.378Z,4.75
2022-11-27T15:02:03.621Z,4.80
2022-11-27T15:04:35.959Z,5.05
2022-11-27T15:07:06.920Z,5.15
2022-11-27T15:09:37.397Z,4.90
2022-11-27T15:12:16.382Z,4.40
2022-11-27T15:14:47.899Z,4.53
2022-11-27T15:17:19.270Z,4.68
2022-11-27T15:19:47.886Z,4.32
2022-11-27T15:22:18.197Z,3.88
2022-11-27T15:24:47.476Z,4.05
2022-11-27T15:27:21.110Z,4.80
2022-11-27T15:30:13.759Z,4.55
2022-11-27T15:32:51.360Z,3.78
2022-11-27T15:35:25.703Z,3.67
2022-11-27T15:37:55.816Z,3.53
2022-11-27T15:40:32.249Z,4.10
2022-11-27T15:43:00.655Z,4.97
2022-11-27T15:45:31.193Z,3.90
2022-11-27T15:48:01.125Z,4.15
2022-11-27T15:50:30.289Z,34.75
2022-11-27T15:53:01.297Z,9.90
2022-11-27T15:55:30.786Z,5.75
2022-11-27T15:57:58.817Z,5.20
2022-11-27T16:00:27.086Z,11.18
2022-11-27T16:02:55.311Z,12.88
2022-11-27T16:05:23.780Z,9.98
2022-11-27T16:07:55.191Z,9.68
2022-11-27T16:10:24.034Z,11.00
2022-11-27T16:12:55.450Z,7.75
2022-11-27T16:15:25.762Z,7.38
2022-11-27T16:17:56.627Z,8.82
2022-11-27T16:20:25.053Z,9.68
2022-11-27T16:22:53.297Z,7.72
2022-11-27T16:25:21.345Z,10.48
2022-11-27T16:27:49.661Z,6.43
2022-11-27T16:30:20.080Z,6.63
2022-11-27T16:32:48.298Z,4.45
2022-11-27T16:35:16.222Z,6.75
2022-11-27T16:37:44.452Z,7.07
2022-11-27T16:40:13.566Z,8.25
2022-11-27T16:42:41.842Z,16.45
2022-11-27T16:45:10.448Z,17.67
2022-11-27T16:47:39.874Z,15.77
2022-11-27T16:50:09.891Z,14.20
2022-11-27T16:52:40.731Z,17.98
2022-11-27T16:55:10.208Z,16.75
2022-11-27T16:57:38.095Z,8.70
2022-11-27T17:00:07.843Z,11.27
2022-11-27T17:02:35.976Z,8.93
2022-11-27T17:05:06.283Z,6.57
2022-11-27T17:07:34.157Z,8.15
2022-11-27T17:10:03.086Z,5.20
2022-11-27T17:12:30.942Z,7.50
2022-11-27T17:14:58.730Z,9.90
2022-11-27T17:17:27.221Z,14.98
2022-11-27T17:20:00.455Z,7.97
2022-11-27T17:22:32.603Z,9.45
2022-11-27T17:25:00.583Z,5.30
2022-11-27T17:27:28.800Z,4.85
2022-11-27T17:29:56.621Z,9.48
2022-11-27T17:32:25.241Z,14.15
2022-11-27T17:34:56.321Z,10.60
2022-11-27T17:37:24.478Z,8.60
2022-11-27T17:39:54.166Z,16.67
2022-11-27T17:42:23.016Z,14.48
2022-11-27T17:44:52.056Z,13.85
2022-11-27T17:47:19.931Z,11.98
2022-11-27T17:49:48.243Z,14.25
2022-11-27T17:52:16.134Z,10.40
2022-11-27T17:54:44.391Z,8.50
2022-11-27T17:57:13.669Z,15.50
2022-11-27T17:59:41.930Z,18.10
2022-11-27T18:02:11.590Z,14.15
2022-11-27T18:04:40.104Z,12.30
2022-11-27T18:07:07.890Z,11.95
2022-11-27T18:09:36.148Z,14.60
2022-11-27T18:12:06.385Z,17.92
2022-11-27T18:14:40.255Z,15.15
2022-11-27T18:17:08.403Z,10.70
2022-11-27T18:19:36.265Z,9.80
2022-11-27T18:22:09.337Z,15.68
2022-11-27T18:24:41.573Z,18.75
2022-11-27T18:27:10.432Z,18.98
2022-11-27T18:29:42.500Z,20.58
2022-11-27T18:32:29.778Z,22.45
2022-11-27T18:34:57.618Z,13.07
2022-11-27T18:37:25.722Z,11.57
2022-11-27T18:39:53.531Z,9.55
2022-11-27T18:42:21.754Z,7.97
2022-11-27T18:44:51.550Z,6.68
2022-11-27T18:47:19.481Z,6.78
2022-11-27T18:49:49.186Z,7.30
2022-11-27T18:52:17.412Z,7.10
2022-11-27T18:54:47.700Z,10.40
2022-11-27T18:57:15.459Z,11.75
2022-11-27T18:59:44.810Z,25.45
2022-11-27T19:02:14.532Z,22.42
2022-11-27T19:04:44.440Z,12.02
2022-11-27T19:07:12.561Z,12.40
2022-11-27T19:09:41.105Z,9.50
2022-11-27T19:12:09.148Z,7.45
2022-11-27T19:14:37.146Z,5.55
2022-11-27T19:17:04.940Z,7.25
2022-11-27T19:19:53.869Z,9.02
2022-11-27T19:22:22.533Z,12.38
2022-11-27T19:24:50.372Z,7.32
2022-11-27T19:27:18.161Z,7.28
2022-11-27T19:29:46.105Z,8.13
2022-11-27T19:32:13.945Z,8.43
2022-11-27T19:34:46.116Z,11.23
2022-11-27T19:37:14.035Z,7.75
2022-11-27T19:39:41.796Z,5.85
2022-11-27T19:42:10.113Z,6.47
2022-11-27T19:44:37.976Z,7.05
2022-11-27T19:47:06.884Z,11.73
2022-11-27T19:49:34.631Z,10.30
2022-11-27T19:52:04.239Z,9.50
2022-11-27T19:54:32.026Z,9.85
2022-11-27T19:56:59.916Z,9.85
2022-11-27T19:59:27.866Z,14.45
2022-11-27T20:01:55.887Z,9.80
2022-11-27T20:04:23.939Z,13.02
2022-11-27T20:06:53.427Z,8.88
2022-11-27T20:09:22.783Z,13.55
2022-11-27T20:11:50.617Z,11.10
2022-11-27T20:14:19.840Z,16.75
2022-11-27T20:16:47.992Z,22.33
2022-11-27T20:19:16.494Z,12.20
2022-11-27T20:21:44.417Z,12.63
2022-11-27T20:24:13.088Z,9.93
2022-11-27T20:26:42.952Z,21.60
2022-11-27T20:29:11.957Z,17.85
2022-11-27T20:31:43.722Z,11.15
2022-11-27T20:34:19.294Z,6.32
2022-11-27T20:39:21.280Z,6.15
2022-11-27T20:41:51.865Z,6.33
2022-11-27T20:44:20.338Z,6.53
2022-11-27T20:46:48.273Z,6.68
2022-11-27T20:49:16.643Z,5.78
2022-11-27T20:51:44.647Z,5.15
2022-11-27T20:54:13.616Z,5.55
2022-11-27T20:56:45.082Z,4.80
2022-11-27T20:59:18.515Z,3.83
2022-11-27T21:01:46.354Z,4.45
2022-11-27T21:04:23.773Z,3.38
2022-11-27T21:06:52.810Z,7.07
2022-11-27T21:09:22.584Z,16.05
2022-11-27T21:11:50.417Z,18.42
2022-11-27T21:14:21.779Z,10.75
2022-11-27T21:16:51.301Z,15.65
2022-11-27T21:19:21.188Z,4.82
2022-11-27T21:21:49.713Z,7.40
2022-11-27T21:24:18.546Z,4.85
2022-11-27T21:26:47.165Z,4.55
2022-11-27T21:29:15.234Z,3.25
2022-11-27T21:31:47.398Z,3.63
2022-11-27T21:34:16.912Z,4.18
2022-11-27T21:36:44.829Z,4.15
2022-11-27T21:39:14.808Z,4.88
2022-11-27T21:41:42.705Z,3.78
2022-11-27T21:44:12.149Z,3.25
2022-11-27T21:46:40.226Z,3.67
2022-11-27T21:49:09.580Z,3.92
2022-11-27T21:51:37.795Z,3.13
2022-11-27T21:54:08.010Z,3.45
2022-11-27T21:56:38.922Z,4.25
2022-11-27T21:59:09.901Z,3.70
2022-11-27T22:01:38.989Z,3.67
2022-11-27T22:04:07.072Z,3.95
2022-11-27T22:06:39.276Z,3.75
2022-11-27T22:09:13.349Z,5.75
2022-11-27T22:11:43.649Z,8.40
2022-11-27T22:14:11.545Z,11.05
2022-11-27T22:16:45.206Z,5.38
2022-11-27T22:19:14.510Z,5.23
2022-11-27T22:21:45.214Z,3.28
2022-11-27T22:24:18.468Z,3.65
2022-11-27T22:26:47.893Z,8.40
2022-11-27T22:29:15.719Z,4.65
2022-11-27T22:31:43.606Z,5.55
2022-11-27T22:34:11.801Z,6.28
2022-11-27T22:36:39.571Z,6.38
2022-11-27T22:39:09.650Z,4.55
2022-11-27T22:41:40.805Z,5.15
2022-11-27T22:44:09.917Z,9.35
2022-11-27T22:46:41.240Z,10.23
2022-11-27T22:49:11.279Z,4.32
2022-11-27T22:51:41.228Z,3.90
2022-11-27T22:54:12.908Z,4.35
2022-11-27T22:56:41.352Z,3.47
2022-11-27T22:59:32.211Z,4.20
2022-11-27T23:01:57.881Z,3.75
2022-11-27T23:04:25.665Z,3.50
2022-11-27T23:06:53.517Z,3.03
2022-11-27T23:09:23.175Z,3.78
2022-11-27T23:11:51.429Z,3.30
2022-11-27T23:14:19.834Z,3.70
2022-11-27T23:16:48.229Z,3.40
2022-11-27T23:19:16.594Z,3.10
2022-11-27T23:21:44.497Z,2.90
2022-11-27T23:24:15.635Z,2.78
2022-11-27T23:26:45.946Z,3.03
2022-11-27T23:29:14.711Z,3.10
2022-11-27T23:31:43.633Z,3.22
2022-11-27T23:34:16.549Z,3.25
2022-11-27T23:36:45.421Z,3.33
2022-11-27T23:39:14.480Z,2.72
2022-11-27T23:41:44.756Z,2.97
2022-11-27T23:44:13.071Z,3.13
2022-11-27T23:46:40.928Z,3.15
2022-11-27T23:49:09.524Z,2.88
2022-11-27T23:51:37.818Z,2.58
2022-11-27T23:54:09.591Z,2.30
2022-11-27T23:56:39.223Z,2.65
2022-11-27T23:59:09.419Z,2.78
